createdAt,value
2018-04-23T00:01:05.082Z,6.00
2018-04-23T00:03:32.595Z,5.87
2018-04-23T00:06:00.078Z,6.80
2018-04-23T00:08:27.563Z,5.97
2018-04-23T00:10:55.811Z,6.33
2018-04-23T00:13:24.063Z,6.40
2018-04-23T00:15:51.546Z,6.40
2018-04-23T00:18:19.792Z,5.87
2018-04-23T00:20:47.287Z,7.30
2018-04-23T00:23:14.796Z,5.40
2018-04-23T00:25:42.266Z,6.70
2018-04-23T00:28:09.742Z,6.20
2018-04-23T00:30:37.992Z,6.50
2018-04-23T00:33:05.467Z,5.50
2018-04-23T00:35:32.939Z,6.60
2018-04-23T00:38:00.446Z,5.80
2018-04-23T00:40:27.931Z,5.73
2018-04-23T00:42:55.406Z,5.80
2018-04-23T00:45:22.895Z,6.10
2018-04-23T00:47:50.403Z,6.33
2018-04-23T00:50:17.889Z,7.40
2018-04-23T00:52:45.392Z,5.60
2018-04-23T00:55:12.869Z,5.87
2018-04-23T00:57:40.345Z,5.90
2018-04-23T01:00:08.611Z,5.93
2018-04-23T01:02:36.082Z,6.13
2018-04-23T01:05:04.323Z,5.63
2018-04-23T01:07:31.801Z,5.83
2018-04-23T01:09:59.257Z,5.73
2018-04-23T01:12:26.709Z,5.07
2018-04-23T01:14:54.180Z,4.70
2018-04-23T01:17:21.625Z,4.90
2018-04-23T01:19:49.094Z,5.03
2018-04-23T01:22:16.559Z,4.93
2018-04-23T01:24:44.017Z,4.93
2018-04-23T01:27:11.473Z,4.40
2018-04-23T01:29:38.934Z,4.77
2018-04-23T01:32:07.131Z,4.60
2018-04-23T01:34:34.593Z,5.03
2018-04-23T01:37:02.034Z,4.50
2018-04-23T01:39:29.486Z,4.60
2018-04-23T01:41:57.701Z,4.80
2018-04-23T01:44:25.164Z,4.70
2018-04-23T01:46:52.621Z,4.30
2018-04-23T01:49:20.079Z,5.07
2018-04-23T01:51:47.537Z,4.60
2018-04-23T01:54:14.986Z,4.50
2018-04-23T01:56:42.440Z,4.47
2018-04-23T01:59:09.898Z,4.27
2018-04-23T02:01:37.325Z,5.10
2018-04-23T02:04:05.538Z,4.43
2018-04-23T02:06:32.986Z,4.90
2018-04-23T02:09:00.476Z,4.73
2018-04-23T02:11:27.913Z,5.23
2018-04-23T02:13:55.375Z,4.50
2018-04-23T02:16:22.821Z,5.17
2018-04-23T02:18:50.304Z,5.30
2018-04-23T02:21:17.762Z,5.17
2018-04-23T02:23:45.249Z,4.70
2018-04-23T02:26:12.718Z,4.70
2018-04-23T02:28:40.933Z,4.27
2018-04-23T02:31:08.411Z,4.73
2018-04-23T02:33:35.869Z,4.40
2018-04-23T02:36:03.351Z,4.57
2018-04-23T02:38:31.611Z,5.00
2018-04-23T02:40:59.074Z,4.37
2018-04-23T02:43:26.527Z,4.97
2018-04-23T02:45:53.977Z,4.57
2018-04-23T02:48:21.448Z,4.63
2018-04-23T02:50:48.928Z,4.83
2018-04-23T02:53:17.171Z,4.50
2018-04-23T02:55:44.648Z,5.17
2018-04-23T02:58:12.869Z,4.53
2018-04-23T03:00:40.327Z,4.63
2018-04-23T03:03:07.788Z,4.60
2018-04-23T03:05:35.263Z,4.50
2018-04-23T03:08:02.706Z,4.80
2018-04-23T03:10:30.176Z,4.83
2018-04-23T03:12:57.634Z,4.73
2018-04-23T03:15:25.111Z,4.80
2018-04-23T03:17:52.570Z,4.53
2018-04-23T03:20:20.026Z,4.70
2018-04-23T03:22:47.486Z,5.00
2018-04-23T03:25:15.737Z,4.97
2018-04-23T03:27:43.192Z,4.83
2018-04-23T03:30:10.657Z,5.10
2018-04-23T03:32:38.136Z,5.37
2018-04-23T03:35:05.594Z,4.90
2018-04-23T03:37:33.054Z,4.73
2018-04-23T03:40:00.508Z,5.10
2018-04-23T03:42:27.946Z,4.97
2018-04-23T03:44:55.424Z,5.03
2018-04-23T03:47:22.858Z,5.20
2018-04-23T03:49:50.314Z,5.23
2018-04-23T03:52:17.782Z,5.37
2018-04-23T03:54:45.233Z,5.30
2018-04-23T03:57:12.686Z,5.47
2018-04-23T03:59:40.185Z,5.10
2018-04-23T04:02:08.399Z,5.30
2018-04-23T04:04:35.878Z,5.27
2018-04-23T04:07:03.330Z,5.13
2018-04-23T04:09:30.775Z,5.30
2018-04-23T04:15:15.470Z,5.60
2018-04-23T04:20:56.669Z,4.53
2018-04-23T04:23:24.128Z,5.00
2018-04-23T04:25:51.571Z,5.37
2018-04-23T04:28:19.014Z,5.63
2018-04-23T04:30:46.510Z,5.53
2018-04-23T04:33:13.952Z,5.40
2018-04-23T04:35:41.464Z,5.40
2018-04-23T04:38:08.879Z,5.63
2018-04-23T04:40:36.333Z,5.60
2018-04-23T04:43:03.798Z,5.87
2018-04-23T04:45:31.232Z,5.70
2018-04-23T04:47:58.693Z,6.00
2018-04-23T04:50:26.172Z,5.90
2018-04-23T04:52:53.624Z,10.90
2018-04-23T04:55:21.134Z,5.97
2018-04-23T04:57:48.604Z,5.33
2018-04-23T05:00:16.056Z,5.40
2018-04-23T05:02:43.533Z,5.10
2018-04-23T05:05:11.015Z,5.70
2018-04-23T05:07:38.496Z,5.57
2018-04-23T05:10:06.699Z,5.77
2018-04-23T05:12:34.180Z,5.50
2018-04-23T05:15:01.637Z,6.10
2018-04-23T05:17:29.095Z,6.60
2018-04-23T05:19:56.533Z,7.23
2018-04-23T05:22:23.984Z,6.83
2018-04-23T05:24:51.428Z,6.83
2018-04-23T05:27:19.637Z,7.47
2018-04-23T05:29:47.096Z,8.10
2018-04-23T05:32:14.553Z,7.37
2018-04-23T05:34:42.027Z,7.53
2018-04-23T05:37:09.482Z,7.37
2018-04-23T05:39:36.959Z,7.30
2018-04-23T05:42:04.429Z,6.97
2018-04-23T05:44:31.874Z,7.83
2018-04-23T05:46:59.342Z,7.40
2018-04-23T05:49:27.574Z,7.50
2018-04-23T05:51:55.067Z,7.90
2018-04-23T05:54:22.556Z,7.87
2018-04-23T05:56:50.010Z,7.30
2018-04-23T05:59:17.470Z,7.97
2018-04-23T06:01:44.934Z,7.73
2018-04-23T06:04:12.379Z,7.50
2018-04-23T06:06:39.863Z,7.23
2018-04-23T06:09:07.317Z,7.70
2018-04-23T06:11:34.798Z,7.87
2018-04-23T06:14:02.269Z,8.40
2018-04-23T06:16:29.747Z,8.27
2018-04-23T06:18:57.208Z,8.20
2018-04-23T06:21:25.444Z,8.23
2018-04-23T06:23:52.901Z,8.23
2018-04-23T06:26:20.350Z,8.60
2018-04-23T06:28:47.794Z,7.57
2018-04-23T06:31:15.262Z,8.63
2018-04-23T06:33:42.713Z,8.10
2018-04-23T06:36:10.177Z,8.03
2018-04-23T06:38:37.629Z,8.33
2018-04-23T06:41:05.090Z,8.20
2018-04-23T06:43:33.334Z,7.67
2018-04-23T06:46:00.793Z,7.87
2018-04-23T06:48:28.259Z,8.17
2018-04-23T06:50:55.709Z,7.57
2018-04-23T06:53:23.167Z,8.70
2018-04-23T06:55:50.610Z,8.07
2018-04-23T06:58:18.068Z,7.73
2018-04-23T07:00:46.308Z,8.33
2018-04-23T07:03:13.771Z,8.07
2018-04-23T07:05:41.263Z,9.73
2018-04-23T07:08:09.473Z,8.47
2018-04-23T07:10:36.962Z,9.77
2018-04-23T07:13:04.423Z,9.33
2018-04-23T07:15:31.882Z,8.83
2018-04-23T07:17:59.403Z,10.00
2018-04-23T07:20:26.878Z,8.30
2018-04-23T07:22:54.339Z,8.07
2018-04-23T07:25:21.795Z,9.30
2018-04-23T07:27:49.239Z,8.33
2018-04-23T07:30:16.699Z,8.37
2018-04-23T07:32:44.155Z,8.13
2018-04-23T07:35:11.603Z,9.90
2018-04-23T07:37:39.086Z,9.33
2018-04-23T07:40:06.529Z,9.53
2018-04-23T07:42:33.990Z,10.10
2018-04-23T07:45:01.450Z,9.80
2018-04-23T07:47:28.913Z,9.10
2018-04-23T07:49:56.358Z,7.83
2018-04-23T07:52:23.813Z,9.13
2018-04-23T07:54:51.270Z,8.67
2018-04-23T07:57:18.738Z,8.13
2018-04-23T07:59:46.186Z,9.20
2018-04-23T08:02:13.632Z,9.57
2018-04-23T08:04:41.107Z,8.27
2018-04-23T08:07:08.563Z,9.30
2018-04-23T08:09:36.035Z,8.57
2018-04-23T08:12:03.478Z,8.30
2018-04-23T08:14:30.969Z,8.30
2018-04-23T08:16:58.401Z,8.53
2018-04-23T08:19:25.855Z,7.93
2018-04-23T08:21:53.311Z,8.20
2018-04-23T08:24:20.761Z,8.70
2018-04-23T08:26:48.214Z,7.60
2018-04-23T08:29:15.696Z,7.83
2018-04-23T08:31:43.186Z,7.50
2018-04-23T08:34:11.431Z,8.10
2018-04-23T08:36:38.882Z,7.27
2018-04-23T08:39:06.366Z,7.40
2018-04-23T08:41:33.798Z,7.10
2018-04-23T08:44:01.282Z,8.57
2018-04-23T08:46:29.497Z,8.13
2018-04-23T08:48:56.975Z,7.90
2018-04-23T08:51:24.429Z,7.10
2018-04-23T08:53:51.891Z,8.43
2018-04-23T08:56:19.345Z,7.93
2018-04-23T08:58:46.814Z,8.30
2018-04-23T09:01:14.266Z,7.53
2018-04-23T09:03:41.713Z,7.73
2018-04-23T09:06:09.166Z,7.63
2018-04-23T09:08:36.646Z,8.03
2018-04-23T09:11:04.093Z,7.30
2018-04-23T09:13:31.587Z,8.13
2018-04-23T09:15:59.802Z,7.13
2018-04-23T09:18:27.265Z,7.10
2018-04-23T09:20:54.718Z,6.97
2018-04-23T09:23:22.194Z,7.13
2018-04-23T09:25:49.650Z,8.13
2018-04-23T09:28:17.126Z,7.60
2018-04-23T09:30:44.582Z,7.40
2018-04-23T09:33:12.055Z,6.17
2018-04-23T09:35:39.502Z,7.10
2018-04-23T09:38:06.937Z,7.23
2018-04-23T09:40:34.404Z,8.27
2018-04-23T09:43:01.845Z,8.10
2018-04-23T09:45:29.305Z,7.33
2018-04-23T09:47:56.797Z,7.60
2018-04-23T09:50:24.262Z,6.80
2018-04-23T09:52:51.727Z,7.83
2018-04-23T09:55:19.969Z,7.30
2018-04-23T09:57:47.414Z,7.47
2018-04-23T10:00:14.875Z,7.10
2018-04-23T10:02:42.354Z,7.07
2018-04-23T10:05:09.814Z,7.13
2018-04-23T10:07:37.270Z,6.97
2018-04-23T10:10:04.749Z,7.77
2018-04-23T10:12:32.970Z,7.47
2018-04-23T10:15:00.430Z,7.17
2018-04-23T10:17:27.888Z,7.20
2018-04-23T10:19:55.400Z,7.53
2018-04-23T10:22:22.833Z,7.60
2018-04-23T10:24:50.315Z,7.70
2018-04-23T10:27:17.765Z,7.83
2018-04-23T10:29:46.023Z,7.70
2018-04-23T10:32:13.486Z,7.73
2018-04-23T10:34:40.990Z,7.43
2018-04-23T10:37:08.440Z,7.00
2018-04-23T10:39:35.905Z,7.47
2018-04-23T10:42:03.369Z,9.57
2018-04-23T10:44:30.870Z,14.07
2018-04-23T10:46:58.326Z,10.67
2018-04-23T10:49:25.782Z,8.23
2018-04-23T10:51:53.239Z,7.13
2018-04-23T10:54:20.743Z,8.07
2018-04-23T10:56:48.213Z,8.10
2018-04-23T10:59:15.726Z,7.30
2018-04-23T11:01:43.992Z,8.10
2018-04-23T11:04:11.445Z,9.20
2018-04-23T11:06:38.934Z,8.43
2018-04-23T11:09:07.142Z,9.30
2018-04-23T11:11:34.615Z,9.80
2018-04-23T11:14:02.071Z,9.17
2018-04-23T11:16:29.530Z,8.03
2018-04-23T11:18:56.983Z,8.90
2018-04-23T11:21:24.470Z,8.77
2018-04-23T11:23:51.918Z,8.37
2018-04-23T11:26:19.398Z,9.27
2018-04-23T11:28:47.609Z,9.23
2018-04-23T11:31:15.067Z,8.93
2018-04-23T11:33:42.514Z,8.83
2018-04-23T11:36:09.979Z,9.53
2018-04-23T11:38:37.447Z,7.90
2018-04-23T11:41:04.914Z,8.20
2018-04-23T11:43:32.368Z,10.73
2018-04-23T11:45:59.873Z,8.33
2018-04-23T11:48:27.307Z,8.27
2018-04-23T11:50:54.788Z,8.70
2018-04-23T11:53:23.009Z,8.37
2018-04-23T11:55:50.470Z,10.10
2018-04-23T11:58:17.928Z,8.63
2018-04-23T12:00:45.415Z,9.30
2018-04-23T12:03:12.869Z,8.80
2018-04-23T12:05:40.333Z,8.43
2018-04-23T12:08:07.812Z,8.30
2018-04-23T12:10:36.043Z,9.17
2018-04-23T12:13:03.478Z,8.43
2018-04-23T12:15:30.933Z,9.77
2018-04-23T12:17:58.394Z,8.33
2018-04-23T12:20:25.894Z,8.33
2018-04-23T12:22:53.345Z,6.90
2018-04-23T12:25:20.796Z,7.60
2018-04-23T12:27:48.263Z,7.80
2018-04-23T12:30:15.712Z,8.07
2018-04-23T12:32:43.166Z,9.53
2018-04-23T12:35:10.625Z,7.87
2018-04-23T12:37:38.083Z,8.97
2018-04-23T12:40:05.550Z,10.33
2018-04-23T12:42:33.012Z,11.93
2018-04-23T12:45:00.521Z,11.13
2018-04-23T12:47:28.015Z,10.40
2018-04-23T12:49:55.470Z,10.53
2018-04-23T12:52:22.932Z,10.03
2018-04-23T12:54:50.386Z,9.93
2018-04-23T12:57:17.844Z,10.40
2018-04-23T12:59:45.302Z,8.17
2018-04-23T13:02:12.765Z,8.90
2018-04-23T13:04:40.211Z,11.03
2018-04-23T13:07:07.669Z,10.63
2018-04-23T13:09:35.147Z,10.13
2018-04-23T13:12:02.606Z,9.30
2018-04-23T13:14:30.059Z,9.00
2018-04-23T13:16:57.510Z,8.60
2018-04-23T13:19:24.957Z,9.67
2018-04-23T13:21:52.457Z,9.87
2018-04-23T13:24:20.684Z,10.23
2018-04-23T13:26:48.146Z,20.80
2018-04-23T13:29:15.598Z,9.03
2018-04-23T13:31:43.057Z,10.10
2018-04-23T13:34:10.514Z,8.57
2018-04-23T13:36:37.987Z,9.87
2018-04-23T13:39:06.230Z,10.60
2018-04-23T13:41:33.701Z,11.13
2018-04-23T13:44:01.174Z,9.03
2018-04-23T13:46:28.664Z,9.87
2018-04-23T13:48:56.151Z,10.97
2018-04-23T13:51:23.635Z,12.17
2018-04-23T13:53:51.106Z,11.67
2018-04-23T13:56:18.571Z,15.17
2018-04-23T13:58:46.054Z,12.83
2018-04-23T14:01:13.535Z,10.33
2018-04-23T14:03:41.021Z,7.90
2018-04-23T14:06:08.495Z,8.97
2018-04-23T14:08:35.975Z,14.40
2018-04-23T14:11:03.426Z,11.53
2018-04-23T14:13:30.918Z,15.47
2018-04-23T14:15:58.366Z,9.23
2018-04-23T14:18:25.822Z,7.40
2018-04-23T14:20:53.278Z,8.37
2018-04-23T14:23:20.725Z,9.20
2018-04-23T14:25:48.342Z,8.83
2018-04-23T14:28:15.817Z,8.97
2018-04-23T14:30:43.278Z,7.33
2018-04-23T14:33:10.771Z,6.47
2018-04-23T14:35:38.214Z,6.10
2018-04-23T14:38:06.443Z,6.17
2018-04-23T14:40:33.877Z,7.00
2018-04-23T14:43:01.369Z,6.20
2018-04-23T14:45:28.823Z,9.47
2018-04-23T14:47:56.279Z,6.80
2018-04-23T14:50:23.734Z,6.20
2018-04-23T14:52:51.180Z,6.27
2018-04-23T14:55:18.640Z,5.23
2018-04-23T14:57:46.093Z,5.80
2018-04-23T15:00:13.538Z,5.03
2018-04-23T15:02:41.020Z,5.30
2018-04-23T15:05:08.468Z,4.53
2018-04-23T15:07:35.925Z,5.33
2018-04-23T15:10:03.375Z,4.93
2018-04-23T15:12:30.851Z,5.63
2018-04-23T15:14:58.322Z,4.53
2018-04-23T15:17:25.772Z,5.67
2018-04-23T15:19:53.237Z,5.20
2018-04-23T15:22:20.671Z,5.20
2018-04-23T15:24:48.154Z,6.33
2018-04-23T15:27:15.614Z,6.40
2018-04-23T15:29:43.075Z,6.40
2018-04-23T15:32:10.554Z,6.47
2018-04-23T15:34:38.782Z,6.87
2018-04-23T15:37:06.229Z,6.57
2018-04-23T15:39:33.682Z,6.70
2018-04-23T15:42:01.130Z,6.23
2018-04-23T15:44:28.590Z,5.63
2018-04-23T15:46:56.051Z,6.10
2018-04-23T15:49:23.514Z,5.87
2018-04-23T15:51:50.977Z,6.40
2018-04-23T15:54:18.457Z,6.50
2018-04-23T15:56:45.889Z,6.47
2018-04-23T15:59:13.367Z,5.70
2018-04-23T16:01:40.807Z,5.80
2018-04-23T16:04:08.266Z,6.37
2018-04-23T16:06:35.723Z,6.43
2018-04-23T16:09:06.093Z,6.63
2018-04-23T16:11:33.575Z,7.27
2018-04-23T16:14:01.062Z,6.67
2018-04-23T16:16:28.518Z,6.93
2018-04-23T16:18:55.977Z,7.87
2018-04-23T16:21:23.430Z,7.00
2018-04-23T16:23:50.901Z,6.93
2018-04-23T16:26:18.350Z,7.80
2018-04-23T16:28:45.919Z,7.40
2018-04-23T16:31:13.383Z,7.57
2018-04-23T16:33:40.850Z,7.53
2018-04-23T16:36:08.282Z,8.00
2018-04-23T16:38:35.741Z,7.53
2018-04-23T16:41:03.186Z,8.43
2018-04-23T16:43:30.642Z,7.40
2018-04-23T16:45:58.098Z,7.50
2018-04-23T16:48:25.545Z,7.97
2018-04-23T16:50:53.032Z,8.50
2018-04-23T16:53:20.494Z,8.50
2018-04-23T16:55:47.955Z,8.43
2018-04-23T16:58:15.407Z,8.43
2018-04-23T17:00:42.890Z,8.20
2018-04-23T17:03:10.326Z,8.30
2018-04-23T17:05:37.782Z,8.43
2018-04-23T17:08:05.256Z,8.27
2018-04-23T17:10:32.713Z,8.23
2018-04-23T17:13:00.179Z,8.43
2018-04-23T17:15:28.446Z,8.10
2018-04-23T17:17:56.673Z,8.83
2018-04-23T17:20:24.146Z,7.93
2018-04-23T17:25:24.519Z,8.70
2018-04-23T17:27:51.963Z,8.90
2018-04-23T17:30:19.433Z,8.47
2018-04-23T17:32:46.894Z,8.90
2018-04-23T17:35:14.347Z,8.97
2018-04-23T17:37:41.789Z,7.97
2018-04-23T17:40:09.280Z,8.27
2018-04-23T17:42:36.735Z,8.83
2018-04-23T17:45:04.995Z,8.00
2018-04-23T17:47:32.499Z,7.43
2018-04-23T17:50:00.816Z,8.47
2018-04-23T17:52:28.291Z,8.60
2018-04-23T17:54:55.749Z,7.87
2018-04-23T17:57:23.907Z,7.30
2018-04-23T17:59:51.363Z,8.03
2018-04-23T18:02:18.839Z,6.77
2018-04-23T18:04:46.336Z,6.70
2018-04-23T18:07:13.823Z,6.40
2018-04-23T18:09:41.323Z,4.43
2018-04-23T18:12:09.585Z,5.37
2018-04-23T18:14:37.085Z,4.90
2018-04-23T18:17:05.214Z,5.60
2018-04-23T18:19:32.728Z,5.30
2018-04-23T18:22:00.218Z,4.93
2018-04-23T18:24:27.703Z,5.20
2018-04-23T18:26:55.964Z,4.60
2018-04-23T18:29:23.440Z,5.33
2018-04-23T18:31:51.701Z,5.83
2018-04-23T18:34:19.202Z,5.20
2018-04-23T18:36:46.711Z,5.50
2018-04-23T18:39:14.172Z,5.30
2018-04-23T18:41:41.672Z,5.90
2018-04-23T18:44:09.155Z,4.90
2018-04-23T18:46:36.643Z,6.40
2018-04-23T18:49:04.103Z,4.90
2018-04-23T18:51:31.599Z,4.83
2018-04-23T18:53:59.065Z,6.27
2018-04-23T18:56:26.571Z,5.50
2018-04-23T18:58:54.031Z,5.20
2018-04-23T19:01:22.237Z,4.77
2018-04-23T19:03:49.711Z,5.50
2018-04-23T19:06:17.179Z,5.67
2018-04-23T19:08:45.811Z,5.03
2018-04-23T19:11:13.266Z,5.27
2018-04-23T19:13:40.740Z,5.07
2018-04-23T19:16:08.965Z,5.60
2018-04-23T19:18:36.433Z,5.07
2018-04-23T19:21:04.091Z,5.10
2018-04-23T19:23:31.578Z,4.90
2018-04-23T19:25:59.041Z,5.50
2018-04-23T19:28:26.514Z,5.23
2018-04-23T19:30:54.755Z,4.97
2018-04-23T19:33:22.243Z,4.80
2018-04-23T19:35:50.578Z,5.17
2018-04-23T19:38:17.970Z,4.73
2018-04-23T19:40:46.209Z,5.30
2018-04-23T19:43:13.668Z,4.70
2018-04-23T19:45:41.105Z,4.40
2018-04-23T19:48:08.585Z,4.97
2018-04-23T19:50:36.055Z,4.77
2018-04-23T19:53:03.531Z,5.07
2018-04-23T19:55:31.009Z,4.97
2018-04-23T19:57:59.237Z,4.93
2018-04-23T20:00:26.752Z,5.30
2018-04-23T20:02:54.234Z,4.67
2018-04-23T20:05:21.703Z,5.10
2018-04-23T20:07:49.177Z,5.30
2018-04-23T20:10:16.646Z,5.43
2018-04-23T20:12:44.143Z,4.83
2018-04-23T20:15:11.627Z,5.77
2018-04-23T20:17:39.107Z,5.33
2018-04-23T20:20:06.621Z,5.70
2018-04-23T20:22:34.120Z,5.43
2018-04-23T20:25:01.569Z,5.23
2018-04-23T20:27:30.478Z,6.93
2018-04-23T20:29:57.930Z,5.53
2018-04-23T20:32:25.427Z,5.47
2018-04-23T20:34:53.663Z,5.73
2018-04-23T20:37:23.262Z,5.87
2018-04-23T20:39:50.727Z,6.10
2018-04-23T20:42:18.226Z,4.87
2018-04-23T20:44:45.694Z,5.33
2018-04-23T20:47:13.151Z,6.30
2018-04-23T20:49:40.629Z,5.30
2018-04-23T20:52:08.839Z,9.47
2018-04-23T20:54:36.330Z,22.63
2018-04-23T20:57:08.143Z,8.80
2018-04-23T20:59:36.491Z,5.20
2018-04-23T21:02:04.693Z,5.70
2018-04-23T21:04:32.179Z,6.13
2018-04-23T21:06:59.667Z,5.93
2018-04-23T21:09:27.174Z,6.10
2018-04-23T21:11:54.671Z,6.10
2018-04-23T21:14:22.968Z,5.90
2018-04-23T21:16:50.526Z,5.43
2018-04-23T21:19:18.022Z,5.20
2018-04-23T21:21:45.486Z,4.90
2018-04-23T21:24:13.636Z,4.97
2018-04-23T21:26:44.099Z,5.30
2018-04-23T21:29:11.578Z,5.53
2018-04-23T21:31:39.818Z,5.33
2018-04-23T21:34:08.104Z,5.20
2018-04-23T21:36:36.175Z,5.87
2018-04-23T21:39:03.690Z,5.43
2018-04-23T21:41:31.159Z,5.87
2018-04-23T21:43:58.680Z,5.83
2018-04-23T21:46:26.918Z,5.80
2018-04-23T21:48:54.409Z,5.30
2018-04-23T21:51:21.866Z,6.07
2018-04-23T21:53:50.118Z,5.50
2018-04-23T21:56:17.565Z,5.50
2018-04-23T21:58:45.021Z,5.23
2018-04-23T22:01:12.526Z,5.53
2018-04-23T22:03:39.991Z,5.67
2018-04-23T22:06:07.576Z,6.63
2018-04-23T22:08:35.770Z,5.50
2018-04-23T22:11:03.275Z,5.03
2018-04-23T22:13:31.503Z,4.83
2018-04-23T22:15:58.983Z,5.07
2018-04-23T22:18:26.463Z,4.83
2018-04-23T22:20:54.693Z,5.40
2018-04-23T22:23:22.219Z,5.23
2018-04-23T22:25:49.729Z,4.83
2018-04-23T22:28:17.220Z,5.10
2018-04-23T22:30:44.779Z,5.37
2018-04-23T22:33:12.243Z,6.10
2018-04-23T22:35:39.782Z,5.07
2018-04-23T22:38:08.019Z,4.87
2018-04-23T22:40:35.552Z,5.37
2018-04-23T22:43:03.001Z,6.40
2018-04-23T22:45:30.464Z,5.97
2018-04-23T22:47:57.916Z,6.17
2018-04-23T22:50:25.418Z,6.87
2018-04-23T22:52:52.811Z,5.83
2018-04-23T22:55:21.030Z,6.17
2018-04-23T22:57:48.473Z,6.30
2018-04-23T23:00:15.963Z,6.07
2018-04-23T23:02:43.405Z,6.37
2018-04-23T23:05:10.860Z,6.83
2018-04-23T23:07:38.316Z,6.57
2018-04-23T23:10:05.771Z,7.07
2018-04-23T23:12:33.224Z,8.77
2018-04-23T23:15:00.674Z,5.83
2018-04-23T23:17:28.113Z,5.53
2018-04-23T23:19:55.552Z,6.23
2018-04-23T23:22:23.014Z,5.00
2018-04-23T23:24:50.463Z,5.60
2018-04-23T23:27:18.687Z,5.40
2018-04-23T23:29:46.130Z,5.90
2018-04-23T23:32:14.363Z,6.90
2018-04-23T23:34:42.575Z,4.97
2018-04-23T23:37:10.051Z,4.83
2018-04-23T23:39:37.504Z,5.57
2018-04-23T23:42:04.965Z,5.90
2018-04-23T23:44:32.425Z,6.17
2018-04-23T23:46:59.880Z,5.90
2018-04-23T23:49:28.092Z,5.57
2018-04-23T23:51:55.550Z,7.80
2018-04-23T23:54:23.005Z,8.20
2018-04-23T23:56:50.466Z,7.60
2018-04-23T23:59:17.902Z,9.07
